INFORMACIÓN METAR y TAF
METAR FOR ENGM
ADDS - METARS form results

(0704 UTC 15 April 2021)
Data provider http://aviationweather.gov/metar/data/
 
METAR text: ENGM 150650Z 02008KT CAVOK 05/M05 Q1034 NOSIG
Conditions at: ENGM (OSLO/GARDERMOEN , NO) observed 0650 UTC 15 April 2021
Temperature: 5.0°C (41°F)
Dewpoint: -5.0°C (23°F) [RH = 48%]
Pressure (altimeter): 30.53 inches Hg (1034.0 mb)
Winds: from the NNE (20 degrees) at 9 MPH (8 knots; 4.1 m/s)
Visibility: 6 or more miles (10+ km)
Ceiling: ceiling and visibility are OK
Clouds: unknown
Weather: no significant weather observed at this time

METAR text: ENGM 150620Z 01009KT CAVOK 04/M05 Q1034 NOSIG
Conditions at: ENGM (OSLO/GARDERMOEN , NO) observed 0620 UTC 15 April 2021
Temperature: 4.0°C (39°F)
Dewpoint: -5.0°C (23°F) [RH = 52%]
Pressure (altimeter): 30.53 inches Hg (1034.0 mb)
Winds: from the N (10 degrees) at 10 MPH (9 knots; 4.6 m/s)
Visibility: 6 or more miles (10+ km)
Ceiling: ceiling and visibility are OK
Clouds: unknown
Weather: no significant weather observed at this time

Forecast for: ENGM (OSLO/GARDERMOEN , NO)
Text: TAF ENGM 1506/1606 36008KT CAVOK
Forecast period: 0600 UTC 15 April 2021 to 0600 UTC 16 April 2021
Forecast type: FROM: standard forecast or significant change
Winds: from the N (360 degrees) at 9 MPH (8 knots; 4.1 m/s)
Visibility: 6 or more miles (10+ km)
Ceiling: unknown
Clouds: missing
Weather: NSW  (no significant weather)

 MAPA DE AEROPUERTO

 INFORMACIÓN DE PISTA
Pista 01L Longitud 11811 ft Ancho 148 ft
Elevación 656 ft Umbral desplazado 0 ft Rumbo de pista 16
Pista 19R Longitud 11811 ft Ancho 148 ft
Elevación 675 ft Umbral desplazado 0 ft Rumbo de pista 196
Pista 01R Longitud 9678 ft Ancho 148 ft
Elevación 670 ft Umbral desplazado 0 ft Rumbo de pista 16
Pista 19L Longitud 9678 ft Ancho 148 ft
Elevación 681 ft Umbral desplazado 0 ft Rumbo de pista 196

 FRECUANCIAS DEL AEROPUERTO
Tipo APP Nombre APP Frecuencia 119.975 MHZ
Tipo ATIS Nombre ATIS Frecuencia 126.125 MHZ
Tipo CLD Nombre CLNC DEL Frecuencia 121.6 MHZ
Tipo DIR Nombre DIRECTOR Frecuencia 131.35 MHZ
Tipo GND Nombre GND Frecuencia 121.925 MHZ
Tipo MISC Nombre DE ICING Frecuencia 131.975 MHZ
Tipo OPS Nombre WINGOPS Frecuencia 29.38 MHZ
Tipo PMSV Nombre PMSV METRO Frecuencia 134.175 MHZ
Tipo TWR Nombre TWR Frecuencia 118.3 MHZ

 RADIO AYUDAS DEL AEROPUERTO
Tipo NDB Nombre Bergerud Frecuencia 316 KHZ
Tipo VOR-DME Nombre Gardermoen Frecuencia 115950 KHZ
Tipo NDB Nombre Oppaker Frecuencia 334 KHZ
Tipo NDB Nombre Solberg Frecuencia 414 KHZ
Tipo NDB Nombre Soknen Frecuencia 387 KHZ



Powered by Virtual Airlines Manager [v2.6.2]